sensor_id;sensor_type;location;lat;lon;timestamp;temperature;humidity
71304;DHT22;59091;47.446;19.148;2023-08-12T00:00:06;18.75;64.98
71304;DHT22;59091;47.446;19.148;2023-08-12T00:02:43;18.72;64.88
71304;DHT22;59091;47.446;19.148;2023-08-12T00:05:10;18.66;65.18
71304;DHT22;59091;47.446;19.148;2023-08-12T00:07:39;18.66;65.06
71304;DHT22;59091;47.446;19.148;2023-08-12T00:10:09;18.65;65.16
71304;DHT22;59091;47.446;19.148;2023-08-12T00:12:35;18.66;65.15
71304;DHT22;59091;47.446;19.148;2023-08-12T00:15:02;18.63;65.12
71304;DHT22;59091;47.446;19.148;2023-08-12T00:17:28;18.58;65.39
71304;DHT22;59091;47.446;19.148;2023-08-12T00:19:53;18.56;65.52
71304;DHT22;59091;47.446;19.148;2023-08-12T00:22:19;18.52;65.65
71304;DHT22;59091;47.446;19.148;2023-08-12T00:24:44;18.52;65.60
71304;DHT22;59091;47.446;19.148;2023-08-12T00:27:10;18.51;65.69
71304;DHT22;59091;47.446;19.148;2023-08-12T00:29:36;18.52;65.70
71304;DHT22;59091;47.446;19.148;2023-08-12T00:32:02;18.51;65.75
71304;DHT22;59091;47.446;19.148;2023-08-12T00:34:27;18.44;65.89
71304;DHT22;59091;47.446;19.148;2023-08-12T00:36:53;18.45;65.91
71304;DHT22;59091;47.446;19.148;2023-08-12T00:39:18;18.41;66.03
71304;DHT22;59091;47.446;19.148;2023-08-12T00:41:44;18.41;66.22
71304;DHT22;59091;47.446;19.148;2023-08-12T00:44:10;18.38;66.08
71304;DHT22;59091;47.446;19.148;2023-08-12T00:46:36;18.35;66.41
71304;DHT22;59091;47.446;19.148;2023-08-12T00:49:03;18.36;66.32
71304;DHT22;59091;47.446;19.148;2023-08-12T00:51:29;18.34;66.34
71304;DHT22;59091;47.446;19.148;2023-08-12T00:54:00;18.36;66.41
71304;DHT22;59091;47.446;19.148;2023-08-12T00:56:26;18.39;66.56
71304;DHT22;59091;47.446;19.148;2023-08-12T00:58:53;18.38;67.00
71304;DHT22;59091;47.446;19.148;2023-08-12T01:01:19;18.55;66.73
71304;DHT22;59091;47.446;19.148;2023-08-12T01:03:45;18.49;65.99
71304;DHT22;59091;47.446;19.148;2023-08-12T01:06:11;18.48;65.59
71304;DHT22;59091;47.446;19.148;2023-08-12T01:08:37;18.28;65.39
71304;DHT22;59091;47.446;19.148;2023-08-12T01:11:26;18.22;65.10
71304;DHT22;59091;47.446;19.148;2023-08-12T01:14:08;18.24;65.10
71304;DHT22;59091;47.446;19.148;2023-08-12T01:16:40;18.24;65.65
71304;DHT22;59091;47.446;19.148;2023-08-12T01:21:55;18.27;65.34
71304;DHT22;59091;47.446;19.148;2023-08-12T01:24:24;18.28;65.56
71304;DHT22;59091;47.446;19.148;2023-08-12T01:26:50;18.21;65.68
71304;DHT22;59091;47.446;19.148;2023-08-12T01:29:16;18.22;65.62
71304;DHT22;59091;47.446;19.148;2023-08-12T01:31:47;18.18;65.81
71304;DHT22;59091;47.446;19.148;2023-08-12T01:34:29;18.17;65.82
71304;DHT22;59091;47.446;19.148;2023-08-12T01:36:58;18.17;65.85
71304;DHT22;59091;47.446;19.148;2023-08-12T01:39:26;18.18;65.88
71304;DHT22;59091;47.446;19.148;2023-08-12T01:41:52;18.19;65.98
71304;DHT22;59091;47.446;19.148;2023-08-12T01:44:19;18.14;65.83
71304;DHT22;59091;47.446;19.148;2023-08-12T01:46:44;18.11;65.88
71304;DHT22;59091;47.446;19.148;2023-08-12T01:49:10;18.08;65.82
71304;DHT22;59091;47.446;19.148;2023-08-12T01:51:35;18.07;65.93
71304;DHT22;59091;47.446;19.148;2023-08-12T01:54:01;18.02;65.98
71304;DHT22;59091;47.446;19.148;2023-08-12T01:56:26;18.01;65.99
71304;DHT22;59091;47.446;19.148;2023-08-12T01:58:51;18.01;66.09
71304;DHT22;59091;47.446;19.148;2023-08-12T02:01:17;17.98;66.17
71304;DHT22;59091;47.446;19.148;2023-08-12T02:03:42;17.97;66.13
71304;DHT22;59091;47.446;19.148;2023-08-12T02:06:08;17.96;66.22
71304;DHT22;59091;47.446;19.148;2023-08-12T02:08:33;17.94;66.06
71304;DHT22;59091;47.446;19.148;2023-08-12T02:10:58;17.90;66.27
71304;DHT22;59091;47.446;19.148;2023-08-12T02:13:24;17.88;66.56
71304;DHT22;59091;47.446;19.148;2023-08-12T02:15:49;17.90;66.43
71304;DHT22;59091;47.446;19.148;2023-08-12T02:18:15;17.86;66.71
71304;DHT22;59091;47.446;19.148;2023-08-12T02:20:41;17.87;66.66
71304;DHT22;59091;47.446;19.148;2023-08-12T02:23:06;17.84;66.64
71304;DHT22;59091;47.446;19.148;2023-08-12T02:25:32;17.74;66.57
71304;DHT22;59091;47.446;19.148;2023-08-12T02:27:57;17.73;67.14
71304;DHT22;59091;47.446;19.148;2023-08-12T02:30:23;17.74;67.26
71304;DHT22;59091;47.446;19.148;2023-08-12T02:32:48;17.71;67.31
71304;DHT22;59091;47.446;19.148;2023-08-12T02:35:15;17.74;67.29
71304;DHT22;59091;47.446;19.148;2023-08-12T02:37:40;17.73;67.35
71304;DHT22;59091;47.446;19.148;2023-08-12T02:40:06;17.77;67.53
71304;DHT22;59091;47.446;19.148;2023-08-12T02:42:32;17.77;67.31
71304;DHT22;59091;47.446;19.148;2023-08-12T02:44:58;17.73;67.37
71304;DHT22;59091;47.446;19.148;2023-08-12T02:47:25;17.71;67.44
71304;DHT22;59091;47.446;19.148;2023-08-12T02:49:50;17.70;67.48
71304;DHT22;59091;47.446;19.148;2023-08-12T02:52:16;17.63;67.78
71304;DHT22;59091;47.446;19.148;2023-08-12T02:54:41;17.67;67.74
71304;DHT22;59091;47.446;19.148;2023-08-12T02:57:07;17.67;67.74
71304;DHT22;59091;47.446;19.148;2023-08-12T02:59:32;17.64;67.68
71304;DHT22;59091;47.446;19.148;2023-08-12T03:01:58;17.67;67.50
71304;DHT22;59091;47.446;19.148;2023-08-12T03:04:23;17.69;67.61
71304;DHT22;59091;47.446;19.148;2023-08-12T03:06:49;17.70;67.48
71304;DHT22;59091;47.446;19.148;2023-08-12T03:09:15;17.66;67.42
71304;DHT22;59091;47.446;19.148;2023-08-12T03:11:41;17.67;67.32
71304;DHT22;59091;47.446;19.148;2023-08-12T03:14:06;17.63;67.43
71304;DHT22;59091;47.446;19.148;2023-08-12T03:16:31;17.63;67.48
71304;DHT22;59091;47.446;19.148;2023-08-12T03:18:57;17.62;67.53
71304;DHT22;59091;47.446;19.148;2023-08-12T03:21:23;17.64;67.70
71304;DHT22;59091;47.446;19.148;2023-08-12T03:23:48;17.66;67.80
71304;DHT22;59091;47.446;19.148;2023-08-12T03:26:14;17.66;67.90
71304;DHT22;59091;47.446;19.148;2023-08-12T03:28:39;17.66;67.65
71304;DHT22;59091;47.446;19.148;2023-08-12T03:31:05;17.66;67.60
71304;DHT22;59091;47.446;19.148;2023-08-12T03:33:30;17.60;67.67
71304;DHT22;59091;47.446;19.148;2023-08-12T03:35:57;17.63;67.55
71304;DHT22;59091;47.446;19.148;2023-08-12T03:38:23;17.64;67.64
71304;DHT22;59091;47.446;19.148;2023-08-12T03:40:49;17.66;67.83
71304;DHT22;59091;47.446;19.148;2023-08-12T03:43:15;17.67;67.86
71304;DHT22;59091;47.446;19.148;2023-08-12T03:45:41;17.73;67.64
71304;DHT22;59091;47.446;19.148;2023-08-12T03:48:07;17.71;67.68
71304;DHT22;59091;47.446;19.148;2023-08-12T03:50:34;17.77;67.51
71304;DHT22;59091;47.446;19.148;2023-08-12T03:53:00;17.77;67.71
71304;DHT22;59091;47.446;19.148;2023-08-12T03:55:25;17.74;67.49
71304;DHT22;59091;47.446;19.148;2023-08-12T03:57:51;17.76;67.53
71304;DHT22;59091;47.446;19.148;2023-08-12T04:00:17;17.77;67.54
71304;DHT22;59091;47.446;19.148;2023-08-12T04:02:42;17.80;67.27
71304;DHT22;59091;47.446;19.148;2023-08-12T04:05:08;17.78;67.34
71304;DHT22;59091;47.446;19.148;2023-08-12T04:07:36;17.81;67.22
71304;DHT22;59091;47.446;19.148;2023-08-12T04:10:01;17.84;66.98
71304;DHT22;59091;47.446;19.148;2023-08-12T04:12:27;17.91;67.18
71304;DHT22;59091;47.446;19.148;2023-08-12T04:14:52;17.97;67.06
71304;DHT22;59091;47.446;19.148;2023-08-12T04:17:18;17.97;66.86
71304;DHT22;59091;47.446;19.148;2023-08-12T04:19:43;17.86;66.24
71304;DHT22;59091;47.446;19.148;2023-08-12T04:22:08;17.77;66.50
71304;DHT22;59091;47.446;19.148;2023-08-12T04:24:34;17.78;66.31
71304;DHT22;59091;47.446;19.148;2023-08-12T04:26:59;17.78;66.16
71304;DHT22;59091;47.446;19.148;2023-08-12T04:29:25;17.59;66.49
71304;DHT22;59091;47.446;19.148;2023-08-12T04:31:50;17.63;66.54
71304;DHT22;59091;47.446;19.148;2023-08-12T04:34:18;17.47;66.89
71304;DHT22;59091;47.446;19.148;2023-08-12T04:36:43;17.50;67.05
71304;DHT22;59091;47.446;19.148;2023-08-12T04:39:08;17.57;66.98
71304;DHT22;59091;47.446;19.148;2023-08-12T04:41:34;17.67;66.65
71304;DHT22;59091;47.446;19.148;2023-08-12T04:43:59;17.84;66.41
71304;DHT22;59091;47.446;19.148;2023-08-12T04:46:25;17.97;66.13
71304;DHT22;59091;47.446;19.148;2023-08-12T04:48:50;18.07;65.76
71304;DHT22;59091;47.446;19.148;2023-08-12T04:51:16;18.22;65.73
71304;DHT22;59091;47.446;19.148;2023-08-12T04:53:41;18.35;65.44
71304;DHT22;59091;47.446;19.148;2023-08-12T04:56:06;18.49;64.54
71304;DHT22;59091;47.446;19.148;2023-08-12T04:58:32;18.49;64.99
71304;DHT22;59091;47.446;19.148;2023-08-12T05:00:58;18.55;64.04
71304;DHT22;59091;47.446;19.148;2023-08-12T05:03:23;18.59;64.01
71304;DHT22;59091;47.446;19.148;2023-08-12T05:05:50;18.68;63.61
71304;DHT22;59091;47.446;19.148;2023-08-12T05:08:16;18.70;63.78
71304;DHT22;59091;47.446;19.148;2023-08-12T05:10:41;18.82;63.45
71304;DHT22;59091;47.446;19.148;2023-08-12T05:13:07;18.92;63.41
71304;DHT22;59091;47.446;19.148;2023-08-12T05:15:32;19.04;63.24
71304;DHT22;59091;47.446;19.148;2023-08-12T05:17:58;19.13;62.82
71304;DHT22;59091;47.446;19.148;2023-08-12T05:20:23;19.02;61.97
71304;DHT22;59091;47.446;19.148;2023-08-12T05:22:49;19.13;61.62
71304;DHT22;59091;47.446;19.148;2023-08-12T05:25:14;19.16;61.79
71304;DHT22;59091;47.446;19.148;2023-08-12T05:27:40;19.30;61.35
71304;DHT22;59091;47.446;19.148;2023-08-12T05:30:06;19.43;61.28
71304;DHT22;59091;47.446;19.148;2023-08-12T05:32:31;19.51;61.42
71304;DHT22;59091;47.446;19.148;2023-08-12T05:34:57;19.59;61.34
71304;DHT22;59091;47.446;19.148;2023-08-12T05:37:22;19.55;60.42
71304;DHT22;59091;47.446;19.148;2023-08-12T05:39:47;19.69;60.37
71304;DHT22;59091;47.446;19.148;2023-08-12T05:42:13;19.83;58.69
71304;DHT22;59091;47.446;19.148;2023-08-12T05:44:40;19.96;59.14
71304;DHT22;59091;47.446;19.148;2023-08-12T05:47:06;20.28;58.44
71304;DHT22;59091;47.446;19.148;2023-08-12T05:49:31;20.69;57.78
71304;DHT22;59091;47.446;19.148;2023-08-12T05:51:57;20.81;56.54
71304;DHT22;59091;47.446;19.148;2023-08-12T05:54:22;20.81;55.60
71304;DHT22;59091;47.446;19.148;2023-08-12T05:56:47;20.94;55.71
71304;DHT22;59091;47.446;19.148;2023-08-12T05:59:13;21.21;55.55
71304;DHT22;59091;47.446;19.148;2023-08-12T06:01:38;21.31;55.11
71304;DHT22;59091;47.446;19.148;2023-08-12T06:04:04;21.37;54.91
71304;DHT22;59091;47.446;19.148;2023-08-12T06:06:29;21.42;54.55
71304;DHT22;59091;47.446;19.148;2023-08-12T06:08:55;21.66;54.70
71304;DHT22;59091;47.446;19.148;2023-08-12T06:11:20;21.73;54.04
71304;DHT22;59091;47.446;19.148;2023-08-12T06:13:45;21.63;55.05
71304;DHT22;59091;47.446;19.148;2023-08-12T06:16:11;21.58;54.70
71304;DHT22;59091;47.446;19.148;2023-08-12T06:18:36;21.67;54.33
71304;DHT22;59091;47.446;19.148;2023-08-12T06:21:02;21.67;55.24
71304;DHT22;59091;47.446;19.148;2023-08-12T06:23:27;21.79;54.47
71304;DHT22;59091;47.446;19.148;2023-08-12T06:25:53;21.83;53.81
71304;DHT22;59091;47.446;19.148;2023-08-12T06:28:18;21.88;53.92
71304;DHT22;59091;47.446;19.148;2023-08-12T06:30:47;21.94;54.70
71304;DHT22;59091;47.446;19.148;2023-08-12T06:33:14;22.07;54.42
71304;DHT22;59091;47.446;19.148;2023-08-12T06:35:40;22.20;54.33
71304;DHT22;59091;47.446;19.148;2023-08-12T06:38:05;22.31;53.30
71304;DHT22;59091;47.446;19.148;2023-08-12T06:40:31;22.37;52.21
71304;DHT22;59091;47.446;19.148;2023-08-12T06:42:56;22.58;51.83
71304;DHT22;59091;47.446;19.148;2023-08-12T06:45:22;22.85;50.08
71304;DHT22;59091;47.446;19.148;2023-08-12T06:47:47;23.12;50.27
71304;DHT22;59091;47.446;19.148;2023-08-12T06:50:12;23.34;49.40
71304;DHT22;59091;47.446;19.148;2023-08-12T06:52:38;23.69;49.03
71304;DHT22;59091;47.446;19.148;2023-08-12T06:55:04;23.84;48.18
71304;DHT22;59091;47.446;19.148;2023-08-12T06:57:29;24.13;47.45
71304;DHT22;59091;47.446;19.148;2023-08-12T06:59:55;24.29;47.87
71304;DHT22;59091;47.446;19.148;2023-08-12T07:02:20;24.47;46.75
71304;DHT22;59091;47.446;19.148;2023-08-12T07:04:46;24.75;45.88
71304;DHT22;59091;47.446;19.148;2023-08-12T07:07:11;24.65;45.82
71304;DHT22;59091;47.446;19.148;2023-08-12T07:09:36;24.85;44.75
71304;DHT22;59091;47.446;19.148;2023-08-12T07:12:02;25.14;44.52
71304;DHT22;59091;47.446;19.148;2023-08-12T07:14:28;25.36;44.04
71304;DHT22;59091;47.446;19.148;2023-08-12T07:16:54;25.65;44.28
71304;DHT22;59091;47.446;19.148;2023-08-12T07:19:19;25.68;42.95
71304;DHT22;59091;47.446;19.148;2023-08-12T07:21:44;25.88;43.46
71304;DHT22;59091;47.446;19.148;2023-08-12T07:24:10;26.28;42.39
71304;DHT22;59091;47.446;19.148;2023-08-12T07:26:35;26.39;43.09
71304;DHT22;59091;47.446;19.148;2023-08-12T07:29:01;26.60;41.93
71304;DHT22;59091;47.446;19.148;2023-08-12T07:31:26;26.83;41.58
71304;DHT22;59091;47.446;19.148;2023-08-12T07:33:52;26.72;41.49
71304;DHT22;59091;47.446;19.148;2023-08-12T07:36:17;27.11;40.59
71304;DHT22;59091;47.446;19.148;2023-08-12T07:38:43;27.24;40.31
71304;DHT22;59091;47.446;19.148;2023-08-12T07:41:08;27.44;39.23
71304;DHT22;59091;47.446;19.148;2023-08-12T07:43:33;27.76;39.16
71304;DHT22;59091;47.446;19.148;2023-08-12T07:45:59;27.85;37.57
71304;DHT22;59091;47.446;19.148;2023-08-12T07:48:24;28.10;37.74
71304;DHT22;59091;47.446;19.148;2023-08-12T07:50:57;28.24;38.15
71304;DHT22;59091;47.446;19.148;2023-08-12T07:53:22;28.50;37.38
71304;DHT22;59091;47.446;19.148;2023-08-12T07:55:48;28.64;36.46
71304;DHT22;59091;47.446;19.148;2023-08-12T07:58:13;28.77;36.99
71304;DHT22;59091;47.446;19.148;2023-08-12T08:00:39;29.01;36.78
71304;DHT22;59091;47.446;19.148;2023-08-12T08:03:04;29.09;35.36
71304;DHT22;59091;47.446;19.148;2023-08-12T08:05:30;29.11;35.82
71304;DHT22;59091;47.446;19.148;2023-08-12T08:07:55;29.33;35.96
71304;DHT22;59091;47.446;19.148;2023-08-12T08:10:21;29.42;34.57
71304;DHT22;59091;47.446;19.148;2023-08-12T08:12:46;29.62;34.26
71304;DHT22;59091;47.446;19.148;2023-08-12T08:15:12;29.81;34.11
71304;DHT22;59091;47.446;19.148;2023-08-12T08:17:37;29.76;34.07
71304;DHT22;59091;47.446;19.148;2023-08-12T08:20:03;29.97;33.49
71304;DHT22;59091;47.446;19.148;2023-08-12T08:22:31;30.27;33.86
71304;DHT22;59091;47.446;19.148;2023-08-12T08:24:56;30.67;32.73
71304;DHT22;59091;47.446;19.148;2023-08-12T08:27:21;30.68;32.99
71304;DHT22;59091;47.446;19.148;2023-08-12T08:29:47;30.90;33.56
71304;DHT22;59091;47.446;19.148;2023-08-12T08:32:13;30.93;32.18
71304;DHT22;59091;47.446;19.148;2023-08-12T08:34:38;30.95;31.73
71304;DHT22;59091;47.446;19.148;2023-08-12T08:37:04;31.20;30.91
71304;DHT22;59091;47.446;19.148;2023-08-12T08:39:30;31.39;31.71
71304;DHT22;59091;47.446;19.148;2023-08-12T08:41:57;31.71;30.30
71304;DHT22;59091;47.446;19.148;2023-08-12T08:44:23;31.78;31.42
71304;DHT22;59091;47.446;19.148;2023-08-12T08:46:53;31.73;29.89
71304;DHT22;59091;47.446;19.148;2023-08-12T08:49:22;31.76;30.40
71304;DHT22;59091;47.446;19.148;2023-08-12T08:51:49;31.77;30.75
71304;DHT22;59091;47.446;19.148;2023-08-12T08:54:15;31.51;30.08
71304;DHT22;59091;47.446;19.148;2023-08-12T08:56:40;31.69;29.94
71304;DHT22;59091;47.446;19.148;2023-08-12T08:59:06;31.70;30.88
71304;DHT22;59091;47.446;19.148;2023-08-12T09:01:32;31.59;29.84
71304;DHT22;59091;47.446;19.148;2023-08-12T09:03:57;31.19;30.21
71304;DHT22;59091;47.446;19.148;2023-08-12T09:06:28;30.85;30.58
71304;DHT22;59091;47.446;19.148;2023-08-12T09:08:54;30.71;31.98
71304;DHT22;59091;47.446;19.148;2023-08-12T09:11:20;30.57;31.53
71304;DHT22;59091;47.446;19.148;2023-08-12T09:13:47;30.30;31.52
71304;DHT22;59091;47.446;19.148;2023-08-12T09:16:12;30.31;32.00
71304;DHT22;59091;47.446;19.148;2023-08-12T09:18:42;30.35;32.88
71304;DHT22;59091;47.446;19.148;2023-08-12T09:21:08;30.11;32.24
71304;DHT22;59091;47.446;19.148;2023-08-12T09:23:39;30.01;33.18
71304;DHT22;59091;47.446;19.148;2023-08-12T09:26:14;30.04;32.75
71304;DHT22;59091;47.446;19.148;2023-08-12T09:28:40;29.66;33.95
71304;DHT22;59091;47.446;19.148;2023-08-12T09:31:06;29.63;34.06
71304;DHT22;59091;47.446;19.148;2023-08-12T09:33:32;29.53;34.03
71304;DHT22;59091;47.446;19.148;2023-08-12T09:35:57;29.35;34.49
71304;DHT22;59091;47.446;19.148;2023-08-12T09:38:23;29.20;34.86
71304;DHT22;59091;47.446;19.148;2023-08-12T09:40:48;28.94;34.34
71304;DHT22;59091;47.446;19.148;2023-08-12T09:43:17;28.79;35.62
71304;DHT22;59091;47.446;19.148;2023-08-12T09:45:44;29.04;35.00
71304;DHT22;59091;47.446;19.148;2023-08-12T09:48:10;28.92;34.70
71304;DHT22;59091;47.446;19.148;2023-08-12T09:50:36;28.92;37.18
71304;DHT22;59091;47.446;19.148;2023-08-12T09:53:01;28.95;35.46
71304;DHT22;59091;47.446;19.148;2023-08-12T09:55:29;29.05;35.01
71304;DHT22;59091;47.446;19.148;2023-08-12T09:57:56;29.18;34.93
71304;DHT22;59091;47.446;19.148;2023-08-12T10:00:23;29.28;35.04
71304;DHT22;59091;47.446;19.148;2023-08-12T10:02:50;29.18;34.61
71304;DHT22;59091;47.446;19.148;2023-08-12T10:05:27;29.25;34.62
71304;DHT22;59091;47.446;19.148;2023-08-12T10:07:53;29.19;33.79
71304;DHT22;59091;47.446;19.148;2023-08-12T10:10:20;29.08;34.60
71304;DHT22;59091;47.446;19.148;2023-08-12T10:12:47;29.01;33.64
71304;DHT22;59091;47.446;19.148;2023-08-12T10:15:13;29.08;33.22
71304;DHT22;59091;47.446;19.148;2023-08-12T10:17:40;29.01;33.85
71304;DHT22;59091;47.446;19.148;2023-08-12T10:20:07;28.68;33.34
71304;DHT22;59091;47.446;19.148;2023-08-12T10:22:34;28.67;33.37
71304;DHT22;59091;47.446;19.148;2023-08-12T10:25:02;28.94;33.54
71304;DHT22;59091;47.446;19.148;2023-08-12T10:27:27;28.97;33.97
71304;DHT22;59091;47.446;19.148;2023-08-12T10:29:56;28.82;32.33
71304;DHT22;59091;47.446;19.148;2023-08-12T10:32:23;28.70;32.03
71304;DHT22;59091;47.446;19.148;2023-08-12T10:34:54;28.95;33.11
71304;DHT22;59091;47.446;19.148;2023-08-12T10:37:20;28.94;33.35
71304;DHT22;59091;47.446;19.148;2023-08-12T10:39:46;28.94;34.41
71304;DHT22;59091;47.446;19.148;2023-08-12T10:42:11;29.12;33.23
71304;DHT22;59091;47.446;19.148;2023-08-12T10:44:49;29.20;33.40
71304;DHT22;59091;47.446;19.148;2023-08-12T10:47:17;29.04;32.04
71304;DHT22;59091;47.446;19.148;2023-08-12T10:49:52;29.04;33.11
71304;DHT22;59091;47.446;19.148;2023-08-12T10:52:38;29.01;33.22
71304;DHT22;59091;47.446;19.148;2023-08-12T10:55:18;28.99;33.00
71304;DHT22;59091;47.446;19.148;2023-08-12T10:57:44;28.82;31.76
71304;DHT22;59091;47.446;19.148;2023-08-12T11:00:17;28.98;32.40
71304;DHT22;59091;47.446;19.148;2023-08-12T11:02:52;28.87;32.10
71304;DHT22;59091;47.446;19.148;2023-08-12T11:05:18;28.87;33.05
71304;DHT22;59091;47.446;19.148;2023-08-12T11:10:33;29.11;31.27
71304;DHT22;59091;47.446;19.148;2023-08-12T11:12:59;28.98;31.91
71304;DHT22;59091;47.446;19.148;2023-08-12T11:15:33;29.04;32.08
71304;DHT22;59091;47.446;19.148;2023-08-12T11:18:01;28.98;31.56
71304;DHT22;59091;47.446;19.148;2023-08-12T11:20:28;29.12;33.10
71304;DHT22;59091;47.446;19.148;2023-08-12T11:22:54;29.02;31.56
71304;DHT22;59091;47.446;19.148;2023-08-12T11:25:20;28.91;32.97
71304;DHT22;59091;47.446;19.148;2023-08-12T11:27:47;29.02;32.74
71304;DHT22;59091;47.446;19.148;2023-08-12T11:30:14;28.90;32.65
71304;DHT22;59091;47.446;19.148;2023-08-12T11:32:44;29.02;34.36
71304;DHT22;59091;47.446;19.148;2023-08-12T11:35:11;28.98;33.44
71304;DHT22;59091;47.446;19.148;2023-08-12T11:37:38;29.15;32.86
71304;DHT22;59091;47.446;19.148;2023-08-12T11:40:05;29.36;32.82
71304;DHT22;59091;47.446;19.148;2023-08-12T11:42:31;29.32;33.27
71304;DHT22;59091;47.446;19.148;2023-08-12T11:44:57;29.30;32.31
71304;DHT22;59091;47.446;19.148;2023-08-12T11:47:23;29.26;32.44
71304;DHT22;59091;47.446;19.148;2023-08-12T11:49:48;29.02;32.22
71304;DHT22;59091;47.446;19.148;2023-08-12T11:52:14;29.11;32.47
71304;DHT22;59091;47.446;19.148;2023-08-12T11:54:40;29.04;32.77
71304;DHT22;59091;47.446;19.148;2023-08-12T11:57:06;29.22;32.56
71304;DHT22;59091;47.446;19.148;2023-08-12T11:59:31;29.30;32.02
71304;DHT22;59091;47.446;19.148;2023-08-12T12:01:57;29.49;31.91
71304;DHT22;59091;47.446;19.148;2023-08-12T12:04:22;29.53;32.09
71304;DHT22;59091;47.446;19.148;2023-08-12T12:06:48;29.55;32.85
71304;DHT22;59091;47.446;19.148;2023-08-12T12:09:14;29.62;32.98
71304;DHT22;59091;47.446;19.148;2023-08-12T12:11:42;29.67;32.20
71304;DHT22;59091;47.446;19.148;2023-08-12T12:14:09;29.67;31.96
71304;DHT22;59091;47.446;19.148;2023-08-12T12:16:42;29.72;32.32
71304;DHT22;59091;47.446;19.148;2023-08-12T12:19:18;29.79;34.02
71304;DHT22;59091;47.446;19.148;2023-08-12T12:21:48;29.86;32.65
71304;DHT22;59091;47.446;19.148;2023-08-12T12:24:14;29.94;32.21
71304;DHT22;59091;47.446;19.148;2023-08-12T12:26:40;30.10;31.80
71304;DHT22;59091;47.446;19.148;2023-08-12T12:29:07;29.87;31.68
71304;DHT22;59091;47.446;19.148;2023-08-12T12:31:34;29.91;31.58
71304;DHT22;59091;47.446;19.148;2023-08-12T12:34:01;29.86;31.63
71304;DHT22;59091;47.446;19.148;2023-08-12T12:36:27;30.00;31.85
71304;DHT22;59091;47.446;19.148;2023-08-12T12:38:52;30.16;31.38
71304;DHT22;59091;47.446;19.148;2023-08-12T12:41:18;30.06;32.48
71304;DHT22;59091;47.446;19.148;2023-08-12T12:43:43;30.27;32.35
71304;DHT22;59091;47.446;19.148;2023-08-12T12:46:08;30.35;32.49
71304;DHT22;59091;47.446;19.148;2023-08-12T12:48:34;30.51;31.67
71304;DHT22;59091;47.446;19.148;2023-08-12T12:50:59;30.61;31.28
71304;DHT22;59091;47.446;19.148;2023-08-12T12:53:25;30.32;31.86
71304;DHT22;59091;47.446;19.148;2023-08-12T12:55:50;30.23;31.57
71304;DHT22;59091;47.446;19.148;2023-08-12T12:58:16;30.11;31.76
71304;DHT22;59091;47.446;19.148;2023-08-12T13:00:42;29.91;32.06
71304;DHT22;59091;47.446;19.148;2023-08-12T13:03:07;30.10;32.38
71304;DHT22;59091;47.446;19.148;2023-08-12T13:05:33;30.23;31.99
71304;DHT22;59091;47.446;19.148;2023-08-12T13:07:58;30.21;32.04
71304;DHT22;59091;47.446;19.148;2023-08-12T13:10:24;30.28;32.04
71304;DHT22;59091;47.446;19.148;2023-08-12T13:12:49;30.42;33.40
71304;DHT22;59091;47.446;19.148;2023-08-12T13:15:15;30.27;34.34
71304;DHT22;59091;47.446;19.148;2023-08-12T13:17:40;30.34;35.09
71304;DHT22;59091;47.446;19.148;2023-08-12T13:20:06;30.25;34.12
71304;DHT22;59091;47.446;19.148;2023-08-12T13:22:32;30.14;33.77
71304;DHT22;59091;47.446;19.148;2023-08-12T13:24:57;30.30;35.70
71304;DHT22;59091;47.446;19.148;2023-08-12T13:27:23;30.55;34.37
71304;DHT22;59091;47.446;19.148;2023-08-12T13:29:48;30.72;34.16
71304;DHT22;59091;47.446;19.148;2023-08-12T13:32:14;30.54;33.53
71304;DHT22;59091;47.446;19.148;2023-08-12T13:34:39;30.59;34.99
71304;DHT22;59091;47.446;19.148;2023-08-12T13:37:04;30.61;34.42
71304;DHT22;59091;47.446;19.148;2023-08-12T13:39:30;30.74;34.81
71304;DHT22;59091;47.446;19.148;2023-08-12T13:41:56;30.69;33.95
71304;DHT22;59091;47.446;19.148;2023-08-12T13:44:22;30.74;34.80
71304;DHT22;59091;47.446;19.148;2023-08-12T13:46:47;31.03;34.72
71304;DHT22;59091;47.446;19.148;2023-08-12T13:49:12;31.19;34.03
71304;DHT22;59091;47.446;19.148;2023-08-12T13:51:38;31.31;32.88
71304;DHT22;59091;47.446;19.148;2023-08-12T13:54:04;31.33;34.58
71304;DHT22;59091;47.446;19.148;2023-08-12T13:56:29;31.26;33.48
71304;DHT22;59091;47.446;19.148;2023-08-12T13:58:55;31.30;33.48
71304;DHT22;59091;47.446;19.148;2023-08-12T14:01:21;31.39;33.52
71304;DHT22;59091;47.446;19.148;2023-08-12T14:03:47;31.50;33.87
71304;DHT22;59091;47.446;19.148;2023-08-12T14:06:12;31.41;32.26
71304;DHT22;59091;47.446;19.148;2023-08-12T14:08:37;31.50;32.47
71304;DHT22;59091;47.446;19.148;2023-08-12T14:11:03;31.56;32.23
71304;DHT22;59091;47.446;19.148;2023-08-12T14:13:29;31.56;32.89
71304;DHT22;59091;47.446;19.148;2023-08-12T14:15:54;31.63;33.66
71304;DHT22;59091;47.446;19.148;2023-08-12T14:18:19;31.64;33.88
71304;DHT22;59091;47.446;19.148;2023-08-12T14:20:45;31.66;32.96
71304;DHT22;59091;47.446;19.148;2023-08-12T14:23:10;31.51;31.65
71304;DHT22;59091;47.446;19.148;2023-08-12T14:25:36;31.47;31.66
71304;DHT22;59091;47.446;19.148;2023-08-12T14:28:01;31.53;31.62
71304;DHT22;59091;47.446;19.148;2023-08-12T14:30:27;31.59;32.23
71304;DHT22;59091;47.446;19.148;2023-08-12T14:32:53;31.64;33.12
71304;DHT22;59091;47.446;19.148;2023-08-12T14:35:18;31.59;33.47
71304;DHT22;59091;47.446;19.148;2023-08-12T14:37:44;31.54;33.50
71304;DHT22;59091;47.446;19.148;2023-08-12T14:40:09;31.67;33.26
71304;DHT22;59091;47.446;19.148;2023-08-12T14:42:35;31.25;32.69
71304;DHT22;59091;47.446;19.148;2023-08-12T14:45:01;31.18;32.37
71304;DHT22;59091;47.446;19.148;2023-08-12T14:47:27;31.27;32.47
71304;DHT22;59091;47.446;19.148;2023-08-12T14:49:52;31.27;32.61
71304;DHT22;59091;47.446;19.148;2023-08-12T14:52:21;31.16;32.42
71304;DHT22;59091;47.446;19.148;2023-08-12T14:54:47;31.04;31.96
71304;DHT22;59091;47.446;19.148;2023-08-12T14:57:12;30.92;32.32
71304;DHT22;59091;47.446;19.148;2023-08-12T14:59:38;30.96;32.03
71304;DHT22;59091;47.446;19.148;2023-08-12T15:02:04;31.06;32.23
71304;DHT22;59091;47.446;19.148;2023-08-12T15:04:29;31.13;32.53
71304;DHT22;59091;47.446;19.148;2023-08-12T15:06:55;31.09;32.77
71304;DHT22;59091;47.446;19.148;2023-08-12T15:09:20;31.06;32.89
71304;DHT22;59091;47.446;19.148;2023-08-12T15:11:46;31.00;32.30
71304;DHT22;59091;47.446;19.148;2023-08-12T15:14:11;30.93;32.44